^^
Your Local Weather - Clay, NY Station Historical Data
Daily Summary for March 23, 2017 Units:  Metric    English   Both
« Previous Day
Next Day »
Daily Weekly Monthly Yearly Custom
  High: Low: Average:
Temperature: 2.1 °C -13.8 °C -5 °C
Dew Point: -9.1 °C -15.9 °C -13.2 °C
Humidity: 87% 29% 56%
Wind Speed: 6.4km/h 0km/h 1.4km/h
Wind Gust: 11.3km/h - -
Wind- - WSW
Pressure: 1036.5 hPa 1029 hPa -
Precipitation: 0.51 mm    
Historical Graphs
 
 
Tabular Data for March 23, 2017
Time Temperature Dew Point Pressure Wind Wind Speed Wind Gust Humidity Rainfall Rate (Hourly) solar
00:02 -8.2 °C -14 °C 1032.1 hPa Calm     63% 0 mm 0 W/m2
00:08 -8.2 °C -13.8 °C 1032.1 hPa Calm     64% 0 mm 0 W/m2
00:14 -8.3 °C -13.9 °C 1032.1 hPa Calm   3.2 km/h 64% 0 mm 0 W/m2
00:20 -8.3 °C -13.9 °C 1032.1 hPa Calm     64% 0 mm 0 W/m2
00:32 -8.6 °C -14 °C 1032.1 hPa Calm     65% 0 mm 0 W/m2
00:38 -8.7 °C -13.9 °C 1032.1 hPa Calm     66% 0 mm 0 W/m2
00:44 -8.7 °C -13.9 °C 1032.1 hPa Calm     66% 0 mm 0 W/m2
00:50 -8.8 °C -14.1 °C 1032.1 hPa Calm     66% 0 mm 0 W/m2
00:56 -8.9 °C -13.9 °C 1032.1 hPa Calm     67% 0 mm 0 W/m2
01:02 -9.1 °C -14.1 °C 1032.4 hPa Calm     67% 0 mm 0 W/m2
01:08 -9.2 °C -14.1 °C 1032.4 hPa Calm     68% 0 mm 0 W/m2
01:14 -9.3 °C -14.1 °C 1032.4 hPa Calm     68% 0 mm 0 W/m2
01:20 -9.5 °C -14.3 °C 1032.4 hPa Calm     68% 0 mm 0 W/m2
01:26 -9.7 °C -14.3 °C 1032.4 hPa Calm     69% 0 mm 0 W/m2
01:32 -9.8 °C -14.4 °C 1032.4 hPa Calm     69% 0 mm 0 W/m2
01:38 -9.8 °C -14.3 °C 1032.4 hPa Calm     70% 0 mm 0 W/m2
01:44 -9.8 °C -14.3 °C 1032.7 hPa Calm     70% 0 mm 0 W/m2
01:50 -9.9 °C -14.2 °C 1032.7 hPa Calm     71% 0 mm 0 W/m2
01:56 -10.1 °C -14.4 °C 1032.7 hPa Calm     71% 0 mm 0 W/m2
02:02 -10.3 °C -14.6 °C 1032.7 hPa Calm     71% 0 mm 0 W/m2
02:08 -10.6 °C -14.8 °C 1032.7 hPa Calm     71% 0 mm 0 W/m2
02:14 -10.7 °C -14.8 °C 1032.7 hPa Calm     72% 0 mm 0 W/m2
02:20 -10.8 °C -14.7 °C 1032.7 hPa Calm     73% 0 mm 0 W/m2
02:26 -10.9 °C -14.8 °C 1032.7 hPa Calm     73% 0 mm 0 W/m2
02:32 -11 °C -14.7 °C 1032.7 hPa Calm     74% 0 mm 0 W/m2
02:38 -11.1 °C -14.8 °C 1033.1 hPa Calm   4.8 km/h 74% 0 mm 0 W/m2
02:44 -10.9 °C -14.4 °C 1033.1 hPa East 1.6 km/h 1.6 km/h 75% 0 mm 0 W/m2
02:50 -10.7 °C -14.3 °C 1033.4 hPa Calm     75% 0 mm 0 W/m2
02:56 -10.7 °C -14.3 °C 1033.1 hPa Calm     75% 0 mm 0 W/m2
03:02 -10.8 °C -14.4 °C 1033.1 hPa Calm     75% 0 mm 0 W/m2
03:08 -11.1 °C -14.8 °C 1033.1 hPa Calm     74% 0 mm 0 W/m2
03:14 -11.2 °C -14.8 °C 1033.1 hPa Calm     75% 0 mm 0 W/m2
03:20 -11.4 °C -15 °C 1033.4 hPa Calm     75% 0 mm 0 W/m2
03:26 -11.6 °C -15.2 °C 1033.4 hPa Calm     75% 0 mm 0 W/m2
03:32 -11.8 °C -15.2 °C 1033.4 hPa Calm     76% 0 mm 0 W/m2
03:38 -11.9 °C -15.3 °C 1033.4 hPa Calm     76% 0 mm 0 W/m2
03:44 -12.1 °C -15.4 °C 1033.4 hPa Calm     76% 0 mm 0 W/m2
03:50 -12.1 °C -15.3 °C 1033.4 hPa Calm     77% 0 mm 0 W/m2
03:56 -12.2 °C -15.4 °C 1033.4 hPa Calm     77% 0 mm 0 W/m2
04:02 -12.2 °C -15.3 °C 1033.4 hPa Calm     78% 0 mm 0 W/m2
04:08 -12.3 °C -15.3 °C 1033.4 hPa Calm     78% 0 mm 0 W/m2
04:14 -12.4 °C -15.4 °C 1033.4 hPa Calm     78% 0 mm 0 W/m2
04:20 -12.4 °C -15.5 °C 1033.4 hPa Calm     78% 0 mm 0 W/m2
04:26 -12.6 °C -15.7 °C 1033.4 hPa Calm     78% 0 mm 0 W/m2
04:32 -12.7 °C -15.8 °C 1033.4 hPa Calm     78% 0 mm 0 W/m2
04:38 -12.7 °C -15.6 °C 1033.7 hPa Calm     79% 0 mm 0 W/m2
04:44 -12.8 °C -15.7 °C 1033.7 hPa Calm     79% 0 mm 0 W/m2
04:50 -12.9 °C -15.6 °C 1033.7 hPa Calm     80% 0 mm 0 W/m2
04:56 -12.9 °C -15.6 °C 1033.7 hPa Calm     80% 0 mm 0 W/m2
05:02 -12.9 °C -15.5 °C 1034.1 hPa Calm     81% 0 mm 0 W/m2
05:08 -13.1 °C -15.6 °C 1034.1 hPa Calm     81% 0 mm 0 W/m2
05:14 -13.1 °C -15.7 °C 1034.1 hPa Calm     81% 0 mm 0 W/m2
05:20 -13.2 °C -15.8 °C 1034.1 hPa Calm     81% 0 mm 0 W/m2
05:26 -13.3 °C -15.8 °C 1034.1 hPa Calm     82% 0 mm 0 W/m2
05:32 -13.2 °C -15.7 °C 1034.4 hPa Calm     82% 0 mm 0 W/m2
05:38 -13.2 °C -15.5 °C 1034.4 hPa Calm     83% 0 mm 0 W/m2
05:44 -13.3 °C -15.7 °C 1034.4 hPa Calm     82% 0 mm 0 W/m2
05:50 -13.4 °C -15.7 °C 1034.4 hPa Calm     83% 0 mm 0 W/m2
05:56 -13.6 °C -15.9 °C 1034.4 hPa Calm     83% 0 mm 0 W/m2
06:02 -13.7 °C -15.9 °C 1034.4 hPa Calm     83% 0 mm 0 W/m2
06:08 -13.7 °C -15.9 °C 1034.8 hPa Calm     83% 0 mm 0 W/m2
06:14 -13.7 °C -15.9 °C 1034.8 hPa Calm     83% 0 mm 0 W/m2
06:20 -13.5 °C -15.6 °C 1034.8 hPa Calm     84% 0 mm 0 W/m2
06:26 -13.3 °C -15.4 °C 1035.1 hPa Calm     84% 0 mm 0 W/m2
06:32 -13.4 °C -15.5 °C 1035.1 hPa Calm     84% 0 mm 0 W/m2
06:38 -13.6 °C -15.7 °C 1035.1 hPa Calm     84% 0 mm 0 W/m2
06:44 -13.6 °C -15.7 °C 1035.1 hPa Calm     84% 0 mm 0 W/m2
06:50 -13.6 °C -15.7 °C 1035.1 hPa Calm     84% 0 mm 0 W/m2
06:56 -13.6 °C -15.7 °C 1035.1 hPa Calm     84% 0 mm 0 W/m2
07:02 -13.7 °C -15.8 °C 1035.1 hPa Calm     84% 0 mm 5 W/m2
07:08 -13.7 °C -15.8 °C 1035.1 hPa Calm     84% 0 mm 7 W/m2
07:14 -13.8 °C -15.9 °C 1035.1 hPa Calm     84% 0 mm 9 W/m2
07:20 -13.8 °C -15.9 °C 1035.1 hPa Calm     84% 0 mm 12 W/m2
07:26 -13.7 °C -15.7 °C 1035.4 hPa Calm     85% 0 mm 14 W/m2
07:32 -13.4 °C -15.4 °C 1035.4 hPa Calm     85% 0 mm 18 W/m2
07:38 -13.3 °C -15.3 °C 1035.4 hPa Calm     85% 0 mm 23 W/m2
07:44 -13.1 °C -15.1 °C 1035.4 hPa Calm     85% 0 mm 39 W/m2
07:50 -12.8 °C -14.6 °C 1035.4 hPa Calm     86% 0 mm 53 W/m2
07:56 -12.4 °C -14.2 °C 1035.4 hPa Calm     86% 0 mm 44 W/m2
08:02 -12 °C -13.9 °C 1035.4 hPa Calm     86% 0 mm 60 W/m2
08:08 -11.6 °C -13.4 °C 1035.4 hPa Calm     86% 0 mm 100 W/m2
08:14 -10.6 °C -12.3 °C 1035.8 hPa Calm     87% 0 mm 88 W/m2
08:20 -9.8 °C -11.6 °C 1035.8 hPa Calm     87% 0 mm 105 W/m2
08:26 -9 °C -10.9 °C 1035.8 hPa Calm     86% 0 mm 160 W/m2
08:32 -8.5 °C -10.9 °C 1035.8 hPa Calm     83% 0 mm 144 W/m2
08:38 -8.1 °C -11.1 °C 1036.1 hPa Calm     79% 0 mm 114 W/m2
08:44 -7.7 °C -11.2 °C 1036.1 hPa Calm     76% 0 mm 84 W/m2
08:50 -7.4 °C -11.2 °C 1036.1 hPa Calm   1.6 km/h 74% 0 mm 165 W/m2
08:56 -7.1 °C -11.5 °C 1036.1 hPa Calm   3.2 km/h 71% 0 mm 167 W/m2
09:02 -6.7 °C -11.7 °C 1036.1 hPa SSW 1.6 km/h 1.6 km/h 68% 0 mm 213 W/m2
09:08 -6.4 °C -11.8 °C 1036.1 hPa SSW 1.6 km/h 1.6 km/h 66% 0 mm 174 W/m2
09:14 -6.2 °C -11.9 °C 1036.1 hPa Calm   3.2 km/h 64% 0 mm 146 W/m2
09:20 -5.8 °C -11.8 °C 1036.1 hPa SW 1.6 km/h 1.6 km/h 63% 0 mm 188 W/m2
09:26 -5.3 °C -11.9 °C 1036.1 hPa SW 1.6 km/h 1.6 km/h 60% 0 mm 197 W/m2
09:32 -5.1 °C -12.1 °C 1036.1 hPa SW 1.6 km/h 1.6 km/h 58% 0 mm 336 W/m2
09:38 -4.7 °C -12.1 °C 1036.1 hPa Calm   6.4 km/h 56% 0 mm 396 W/m2
09:44 -4.3 °C -12 °C 1036.5 hPa SW 1.6 km/h 4.8 km/h 55% 0 mm 420 W/m2
09:50 -4 °C -12.4 °C 1036.1 hPa WSW 1.6 km/h 4.8 km/h 52% 0 mm 496 W/m2
09:56 -3.5 °C -11.9 °C 1036.1 hPa WSW 3.2 km/h 4.8 km/h 52% 0 mm 515 W/m2
10:02 -3.3 °C -12.2 °C 1036.1 hPa WSW 1.6 km/h 3.2 km/h 50% 0 mm 534 W/m2
10:08 -2.9 °C -12.2 °C 1036.1 hPa SSW 1.6 km/h 8 km/h 49% 0 mm 554 W/m2
10:14 -2.9 °C -12.1 °C 1036.5 hPa WSW 3.2 km/h 4.8 km/h 49% 0 mm 568 W/m2
10:20 -3 °C -12.5 °C 1036.1 hPa SSW 3.2 km/h 3.2 km/h 48% 0 mm 587 W/m2
10:26 -2.7 °C -12.4 °C 1036.1 hPa WSW 3.2 km/h 6.4 km/h 47% 0 mm 605 W/m2
10:32 -2.7 °C -12.7 °C 1036.1 hPa WSW 1.6 km/h 3.2 km/h 46% 0 mm 622 W/m2
10:38 -2.5 °C -12.3 °C 1036.1 hPa West 3.2 km/h 6.4 km/h 47% 0 mm 635 W/m2
10:44 -1.7 °C -12.1 °C 1036.1 hPa NNW 3.2 km/h 3.2 km/h 45% 0 mm 647 W/m2
10:50 -2 °C -13.2 °C 1036.1 hPa WNW 1.6 km/h 1.6 km/h 42% 0 mm 661 W/m2
10:56 -1.8 °C -12.2 °C 1036.1 hPa West 1.6 km/h 9.7 km/h 45% 0 mm 677 W/m2
11:02 -2 °C -12.9 °C 1036.1 hPa SW 4.8 km/h 4.8 km/h 43% 0 mm 689 W/m2
11:08 -1.9 °C -12.9 °C 1036.1 hPa West 3.2 km/h 4.8 km/h 43% 0 mm 703 W/m2
11:14 -1.6 °C -13.1 °C 1036.1 hPa NW 1.6 km/h 4.8 km/h 41% 0 mm 715 W/m2
11:18 -1.4 °C -12.9 °C 1036.1 hPa SW 3.2 km/h 6.4 km/h 41% 0 mm 721 W/m2
11:26 -1.7 °C -12.6 °C 1036.1 hPa WNW 3.2 km/h 8 km/h 43% 0 mm 733 W/m2
11:32 -1.6 °C -12.8 °C 1036.1 hPa SW 4.8 km/h 8 km/h 42% 0 mm 744 W/m2
11:38 -1.9 °C -12.9 °C 1036.1 hPa SW 4.8 km/h 8 km/h 43% 0 mm 751 W/m2
11:44 -1.5 °C -12.2 °C 1036.1 hPa West 3.2 km/h 4.8 km/h 44% 0 mm 758 W/m2
11:50 -1.1 °C -12.7 °C 1036.1 hPa WSW 3.2 km/h 4.8 km/h 41% 0 mm 768 W/m2
11:56 -1.1 °C -12.1 °C 1036.1 hPa West 4.8 km/h 4.8 km/h 43% 0 mm 773 W/m2
12:02 -0.9 °C -13.2 °C 1036.1 hPa SW 4.8 km/h 4.8 km/h 39% 0 mm 780 W/m2
12:08 -1.1 °C -12.7 °C 1036.1 hPa WNW 4.8 km/h 8 km/h 41% 0 mm 786 W/m2
12:14 -0.5 °C -13.1 °C 1036.1 hPa WSW 3.2 km/h 4.8 km/h 38% 0 mm 793 W/m2
12:22 -0.5 °C -12.8 °C 1035.8 hPa SW 4.8 km/h 4.8 km/h 39% 0 mm 798 W/m2
12:28 -0.2 °C -12.6 °C 1035.4 hPa WNW 3.2 km/h 4.8 km/h 39% 0 mm 803 W/m2
12:34 -0.2 °C -13.5 °C 1035.4 hPa NNW 3.2 km/h 9.7 km/h 36% 0 mm 807 W/m2
12:40 -0.3 °C -12.6 °C 1035.4 hPa NNW 4.8 km/h 4.8 km/h 39% 0 mm 807 W/m2
12:46 -0.7 °C -13.3 °C 1035.4 hPa West 4.8 km/h 4.8 km/h 38% 0 mm 807 W/m2
12:52 0.1 °C -12.3 °C 1035.4 hPa West 3.2 km/h 3.2 km/h 39% 0 mm 812 W/m2
12:58 -0.4 °C -13.3 °C 1035.4 hPa WSW 3.2 km/h 6.4 km/h 37% 0 mm 814 W/m2
13:04 -0.3 °C -12.9 °C 1035.4 hPa SW 4.8 km/h 6.4 km/h 38% 0 mm 812 W/m2
13:10 -0.4 °C -13.1 °C 1035.4 hPa WSW 4.8 km/h 8 km/h 38% 0 mm 812 W/m2
13:16 -0.1 °C -12.8 °C 1035.4 hPa West 3.2 km/h 8 km/h 38% 0 mm 814 W/m2
13:22 0.1 °C -12.9 °C 1035.4 hPa SW 3.2 km/h 8 km/h 37% 0 mm 814 W/m2
13:28 0.2 °C -12.2 °C 1035.4 hPa WSW 3.2 km/h 8 km/h 39% 0 mm 812 W/m2
13:34 -0.1 °C -12.8 °C 1035.1 hPa South 3.2 km/h 8 km/h 38% 0 mm 812 W/m2
13:40 0 °C -13 °C 1035.1 hPa NW 4.8 km/h 4.8 km/h 37% 0 mm 809 W/m2
13:46 0.1 °C -12.9 °C 1035.1 hPa WNW 4.8 km/h 8 km/h 37% 0 mm 807 W/m2
13:52 0.4 °C -12.9 °C 1035.1 hPa NW 4.8 km/h 4.8 km/h 36% 0 mm 803 W/m2
13:58 0.1 °C -12.6 °C 1035.1 hPa West 4.8 km/h 8 km/h 38% 0 mm 798 W/m2
14:04 0.2 °C -12.8 °C 1035.1 hPa NW 4.8 km/h 8 km/h 37% 0 mm 793 W/m2
14:10 0.4 °C -12.3 °C 1035.1 hPa WNW 6.4 km/h 6.4 km/h 38% 0 mm 788 W/m2
14:16 0.4 °C -12.6 °C 1034.8 hPa WSW 4.8 km/h 6.4 km/h 37% 0 mm 780 W/m2
14:22 0.1 °C -12.6 °C 1034.8 hPa WSW 4.8 km/h 4.8 km/h 38% 0 mm 775 W/m2
14:28 0.2 °C -12.8 °C 1034.4 hPa WSW 4.8 km/h 11.3 km/h 37% 0 mm 770 W/m2
14:34 0.7 °C -12.7 °C 1034.4 hPa WSW 4.8 km/h 6.4 km/h 36% 0 mm 761 W/m2
14:40 0.5 °C -13.2 °C 1034.4 hPa South 4.8 km/h 4.8 km/h 35% 0 mm 752 W/m2
14:46 0.3 °C -13 °C 1034.4 hPa West 6.4 km/h 8 km/h 36% 0 mm 744 W/m2
14:52 0.7 °C -12.7 °C 1034.1 hPa West 4.8 km/h 4.8 km/h 36% 0 mm 733 W/m2
14:58 0.5 °C -13.2 °C 1034.4 hPa WSW 4.8 km/h 11.3 km/h 35% 0 mm 724 W/m2
15:04 1 °C -12.4 °C 1034.1 hPa SW 4.8 km/h 8 km/h 36% 0 mm 714 W/m2
15:10 1 °C -12.8 °C 1034.1 hPa West 3.2 km/h 6.4 km/h 35% 0 mm 703 W/m2
15:16 0.9 °C -13.6 °C 1033.7 hPa WSW 4.8 km/h 6.4 km/h 33% 0 mm 689 W/m2
15:22 1.1 °C -12.7 °C 1033.7 hPa West 3.2 km/h 11.3 km/h 35% 0 mm 680 W/m2
15:28 0.9 °C -13.2 °C 1033.7 hPa SW 4.8 km/h 11.3 km/h 34% 0 mm 666 W/m2
15:34 1.2 °C -12.6 °C 1033.7 hPa SW 4.8 km/h 4.8 km/h 35% 0 mm 656 W/m2
15:40 1.6 °C -13 °C 1033.7 hPa WNW 4.8 km/h 4.8 km/h 33% 0 mm 643 W/m2
15:46 1.6 °C -13 °C 1033.7 hPa WSW 3.2 km/h 6.4 km/h 33% 0 mm 629 W/m2
15:52 1.2 °C -12.6 °C 1033.7 hPa SW 3.2 km/h 6.4 km/h 35% 0 mm 613 W/m2
15:58 0.9 °C -13.6 °C 1033.4 hPa SW 3.2 km/h 6.4 km/h 33% 0 mm 598 W/m2
16:04 0.8 °C -13.3 °C 1033.4 hPa WSW 3.2 km/h 8 km/h 34% 0 mm 575 W/m2
16:10 1.3 °C -13.7 °C 1033.4 hPa West 4.8 km/h 4.8 km/h 32% 0 mm 570 W/m2
16:16 0.9 °C -13.6 °C 1033.4 hPa SSW 4.8 km/h 4.8 km/h 33% 0 mm 552 W/m2
16:22 1.7 °C -12.6 °C 1033.1 hPa WSW 3.2 km/h 4.8 km/h 34% 0 mm 534 W/m2
16:28 1.4 °C -13.9 °C 1033.1 hPa WSW 3.2 km/h 6.4 km/h 31% 0 mm 519 W/m2
16:34 1.5 °C -14.2 °C 1032.7 hPa WSW 3.2 km/h 3.2 km/h 30% 0 mm 501 W/m2
16:40 1.7 °C -14.1 °C 1032.7 hPa WSW 1.6 km/h 3.2 km/h 30% 0 mm 485 W/m2
16:46 1.7 °C -13.3 °C 1032.7 hPa WSW 3.2 km/h 9.7 km/h 32% 0 mm 471 W/m2
16:52 1.6 °C -13.8 °C 1032.7 hPa WSW 3.2 km/h 3.2 km/h 31% 0 mm 452 W/m2
16:58 1.8 °C -13.6 °C 1032.7 hPa SW 3.2 km/h 8 km/h 31% 0 mm 434 W/m2
17:04 1.8 °C -14 °C 1032.7 hPa WNW 3.2 km/h 6.4 km/h 30% 0 mm 415 W/m2
17:10 1.8 °C -14 °C 1032.4 hPa North 1.6 km/h 8 km/h 30% 0 mm 397 W/m2
17:16 1.9 °C -13.4 °C 1032.4 hPa WNW 1.6 km/h 8 km/h 31% 0 mm 378 W/m2
17:22 2.1 °C -14.2 °C 1032.4 hPa West 1.6 km/h 4.8 km/h 29% 0 mm 359 W/m2
17:28 2.1 °C -14.1 °C 1032.4 hPa West 1.6 km/h 4.8 km/h 29% 0 mm 341 W/m2
17:34 1.9 °C -13.5 °C 1032.4 hPa West 1.6 km/h 1.6 km/h 31% 0 mm 320 W/m2
17:40 1.7 °C -12.5 °C 1032.4 hPa WSW 1.6 km/h 4.8 km/h 34% 0 mm 301 W/m2
17:46 1.3 °C -13.6 °C 1032.4 hPa SSW 1.6 km/h 4.8 km/h 32% 0 mm 283 W/m2
17:52 1.2 °C -13.3 °C 1032.4 hPa SW 3.2 km/h 4.8 km/h 33% 0 mm 260 W/m2
17:58 1.3 °C -13.3 °C 1032.4 hPa South 1.6 km/h 4.8 km/h 33% 0 mm 225 W/m2
18:10 0.8 °C -13.3 °C 1032.1 hPa South 4.8 km/h 4.8 km/h 34% 0 mm 181 W/m2
18:16 0.9 °C -13.6 °C 1032.1 hPa SSW 3.2 km/h 4.8 km/h 33% 0 mm 178 W/m2
18:22 1 °C -13.1 °C 1032.4 hPa SSW 3.2 km/h 3.2 km/h 34% 0 mm 163 W/m2
18:28 0.8 °C -13.7 °C 1032.1 hPa South 3.2 km/h 6.4 km/h 33% 0 mm 144 W/m2
18:34 0.7 °C -13.4 °C 1031.7 hPa South 3.2 km/h 6.4 km/h 34% 0 mm 47 W/m2
18:40 0.4 °C -13.6 °C 1031.7 hPa South 1.6 km/h 4.8 km/h 34% 0 mm 65 W/m2
18:46 0.4 °C -13.3 °C 1031.7 hPa South 3.2 km/h 4.8 km/h 35% 0 mm 63 W/m2
18:52 0.6 °C -13.2 °C 1031.7 hPa Calm   1.6 km/h 35% 0 mm 62 W/m2
18:58 0.4 °C -13.3 °C 1031.7 hPa Calm   3.2 km/h 35% 0 mm 37 W/m2
19:04 0.3 °C -13.1 °C 1031.7 hPa Calm     36% 0 mm 14 W/m2
19:10 0.1 °C -14 °C 1031.7 hPa Calm   1.6 km/h 34% 0 mm 11 W/m2
19:16 0.1 °C -13.6 °C 1032.1 hPa Calm   1.6 km/h 35% 0 mm 5 W/m2
19:22 -0.2 °C -13.1 °C 1032.4 hPa Calm     37% 0 mm 0 W/m2
19:28 -0.8 °C -11.6 °C 1032.1 hPa Calm     44% 0 mm 0 W/m2
19:34 -1.2 °C -12.4 °C 1032.1 hPa Calm     42% 0 mm 0 W/m2
19:40 -1.5 °C -12.2 °C 1032.4 hPa Calm     44% 0 mm 0 W/m2
19:46 -1.7 °C -12.1 °C 1032.4 hPa Calm     45% 0 mm 0 W/m2
19:52 -1.9 °C -10.5 °C 1032.4 hPa Calm     52% 0 mm 0 W/m2
19:58 -2.2 °C -10.3 °C 1032.4 hPa Calm     54% 0 mm 0 W/m2
20:04 -2.4 °C -9.1 °C 1032.4 hPa Calm     60% 0 mm 0 W/m2
20:10 -2.6 °C -10.2 °C 1032.4 hPa Calm     56% 0 mm 0 W/m2
20:16 -2.7 °C -11.2 °C 1032.4 hPa Calm     52% 0 mm 0 W/m2
20:22 -2.8 °C -12.3 °C 1032.4 hPa Calm     48% 0 mm 0 W/m2
20:28 -2.9 °C -11.9 °C 1032.4 hPa Calm     50% 0 mm 0 W/m2
20:34 -2.9 °C -11.9 °C 1032.4 hPa Calm     50% 0 mm 0 W/m2
20:40 -2.8 °C -11.8 °C 1032.4 hPa Calm     50% 0 mm 0 W/m2
20:46 -2.7 °C -10.8 °C 1032.1 hPa Calm   1.6 km/h 54% 0 mm 0 W/m2
20:52 -2.9 °C -10 °C 1031.7 hPa Calm     58% 0 mm 0 W/m2
20:58 -2.9 °C -11.2 °C 1031.7 hPa Calm     53% 0 mm 0 W/m2
21:04 -2.8 °C -11.1 °C 1031.7 hPa Calm     53% 0 mm 0 W/m2
21:10 -2.9 °C -11.2 °C 1031.7 hPa Calm     53% 0 mm 0 W/m2
21:16 -2.9 °C -10.7 °C 1031.7 hPa Calm     55% 0 mm 0 W/m2
21:22 -3.1 °C -11.1 °C 1031.4 hPa Calm     54% 0 mm 0 W/m2
21:28 -3.1 °C -10.2 °C 1031 hPa Calm     58% 0 mm 0 W/m2
21:34 -3.3 °C -11.1 °C 1031 hPa Calm     55% 0 mm 0 W/m2
21:40 -3.3 °C -10.9 °C 1031 hPa Calm   1.6 km/h 56% 0 mm 0 W/m2
21:46 -3.3 °C -11.3 °C 1031 hPa Calm   1.6 km/h 54% 0 mm 0 W/m2
21:52 -3.3 °C -11.8 °C 1031.4 hPa Calm     52% 0 mm 0 W/m2
21:58 -3.4 °C -10.6 °C 1031 hPa Calm     58% 0 mm 0 W/m2
22:04 -3.6 °C -10.7 °C 1031 hPa Calm     58% 0 mm 0 W/m2
22:10 -3.7 °C -11.4 °C 1031 hPa Calm   1.6 km/h 55% 0 mm 0 W/m2
22:16 -3.7 °C -10.9 °C 1031 hPa Calm   1.6 km/h 57% 0 mm 0 W/m2
22:22 -3.7 °C -11.9 °C 1031 hPa Calm     53% 0 mm 0 W/m2
22:28 -3.7 °C -11.2 °C 1031 hPa Calm     56% 0 mm 0 W/m2
22:34 -3.6 °C -10.7 °C 1031 hPa Calm     58% 0 mm 0 W/m2
22:40 -3.6 °C -11.6 °C 1030.7 hPa Calm   1.6 km/h 54% 0 mm 0 W/m2
22:46 -3.4 °C -10.8 °C 1030.7 hPa Calm   1.6 km/h 57% 0 mm 0 W/m2
22:52 -3.4 °C -10.7 °C 1030.7 hPa Calm     57% 0 mm 0 W/m2
22:58 -3.2 °C -11.2 °C 1030.7 hPa Calm     54% 0 mm 0 W/m2
23:04 -2.8 °C -11.6 °C 1030.7 hPa Calm     51% 0 mm 0 W/m2
23:10 -2.7 °C -10.7 °C 1030.4 hPa Calm     54% 0 mm 0 W/m2
23:16 -2.7 °C -10.9 °C 1030.4 hPa Calm   1.6 km/h 53% 0 mm 0 W/m2
23:22 -2.6 °C -10.4 °C 1030 hPa Calm   1.6 km/h 55% 0 mm 0 W/m2
23:28 -2.4 °C -11.2 °C 1030 hPa Calm   1.6 km/h 51% 0 mm 0 W/m2
23:34 -2.3 °C -11.9 °C 1030 hPa Calm   3.2 km/h 48% 0 mm 0 W/m2
23:40 -2.1 °C -11.9 °C 1029.7 hPa ESE 1.6 km/h 1.6 km/h 47% 0 mm 0 W/m2
23:46 -2 °C -11.8 °C 1029.3 hPa ESE 1.6 km/h 4.8 km/h 47% 0 mm 0 W/m2
23:52 -1.9 °C -12.3 °C 1029 hPa SE 1.6 km/h 3.2 km/h 45% 0 mm 0 W/m2
23:58 -1.8 °C -11.9 °C 1029 hPa East 1.6 km/h 3.2 km/h 46% 0 mm 0 W/m2
Country Meadow, Clay, NY, USA
Compliments of Weather Underground - 2 mb